< Typhoon 201619 2016 Season Typhoon 201621 >
Typhoon 201620 (SONGDA)
General InformationTrack Information on Google MapsDetailed Wind InformationForecast History on Google MapsAccess Analytics MapList of All Images || NewsDisaster Info.WeblogTrackbackTyphoon FrontTwiphoonTyphoon Now!Typhoon ImaginationDisaster Info. XMLResourceGoogle EarthGE AnimationAtom FeedGeoJSON
Detalied Best Track (Time Zone = UTC)
Year Month Day Hour Lat. Long. Pressure (hPa) Wind (kt) Class Image Chart
2016 10 3 18 16.4 180.5 1008 0 7 Image Chart
2016 10 4 00 16.5 178.8 1008 0 2 Image Chart
2016 10 4 06 16.4 177.6 1006 0 2 Image Chart
2016 10 4 12 16.6 176.7 1006 0 2 Image Chart
2016 10 4 18 17.3 175.9 1006 0 2 Image Chart
2016 10 5 00 18.0 174.7 1008 0 2 Image Chart
2016 10 5 06 18.1 173.1 1008 0 2 Image Chart
2016 10 5 12 18.0 171.5 1008 0 2 Image Chart
2016 10 5 18 17.9 170.3 1006 0 2 Image Chart
2016 10 6 00 17.9 168.7 1008 0 2 Image Chart
2016 10 6 06 18.0 167.0 1006 0 2 Image Chart
2016 10 6 12 18.0 165.5 1008 0 2 Image Chart
2016 10 6 18 18.1 164.4 1008 0 2 Image Chart
2016 10 7 00 18.2 163.4 1008 0 2 Image Chart
2016 10 7 06 18.6 161.8 1006 0 2 Image Chart
2016 10 7 12 18.9 160.4 1006 0 2 Image Chart
2016 10 7 18 19.2 158.7 1006 0 2 Image Chart
2016 10 8 00 19.3 157.3 1004 0 2 Image Chart
2016 10 8 06 19.5 155.8 1002 0 2 Image Chart
2016 10 8 12 19.9 154.4 1000 35 3 Image Chart
2016 10 8 18 20.6 152.7 1000 35 3 Image Chart
2016 10 9 00 21.2 151.3 1000 35 3 Image Chart
2016 10 9 06 22.1 150.0 996 40 3 Image Chart
2016 10 9 12 23.2 148.5 990 45 3 Image Chart
2016 10 9 18 24.0 147.3 980 55 4 Image Chart
2016 10 10 00 24.7 146.4 970 65 5 Image Chart
2016 10 10 06 25.5 145.9 955 80 5 Image Chart
2016 10 10 12 26.3 145.8 940 90 5 Image Chart
2016 10 10 18 27.2 145.8 930 95 5 Image Chart
2016 10 11 00 27.8 146.0 935 90 5 Image Chart
2016 10 11 06 28.5 146.7 935 90 5 Image Chart
2016 10 11 12 29.2 147.5 930 95 5 Image Chart
2016 10 11 18 30.3 148.9 925 100 5 Image Chart
2016 10 12 00 31.3 151.0 925 100 5 Image Chart
2016 10 12 06 32.6 153.7 935 90 5 Image Chart
2016 10 12 12 33.9 156.8 945 85 5 Image Chart
2016 10 12 18 35.8 161.1 955 75 5 Image Chart
2016 10 13 00 38.1 166.3 970 65 5 Image Chart
2016 10 13 06 40.3 171.1 988 0 6 Image Chart
2016 10 13 12 41.7 176.5 992 0 6 Image Chart
2016 10 13 18 42.1 183.6 996 0 6 Image Chart
Japan Meteorological Agency Best Track Data | Correction Date : 2016-11-22
< Typhoon 201619 2016 Season Typhoon 201621 >

Help